sensor_id;sensor_type;location;lat;lon;timestamp;P1;durP1;ratioP1;P2;durP2;ratioP2
19747;SDS011;10032;51.386;12.516;2022-08-19T00:01:45;12.32;;;9.65;;
19747;SDS011;10032;51.386;12.516;2022-08-19T00:04:13;11.57;;;8.63;;
19747;SDS011;10032;51.386;12.516;2022-08-19T00:06:41;14.05;;;9.65;;
19747;SDS011;10032;51.386;12.516;2022-08-19T00:09:08;11.10;;;9.30;;
19747;SDS011;10032;51.386;12.516;2022-08-19T00:11:36;12.73;;;9.52;;
19747;SDS011;10032;51.386;12.516;2022-08-19T00:14:02;12.68;;;9.25;;
19747;SDS011;10032;51.386;12.516;2022-08-19T00:16:29;12.48;;;9.95;;
19747;SDS011;10032;51.386;12.516;2022-08-19T00:18:55;15.57;;;10.98;;
19747;SDS011;10032;51.386;12.516;2022-08-19T00:21:21;15.85;;;11.88;;
19747;SDS011;10032;51.386;12.516;2022-08-19T00:23:48;14.18;;;9.38;;
19747;SDS011;10032;51.386;12.516;2022-08-19T00:26:13;12.80;;;9.40;;
19747;SDS011;10032;51.386;12.516;2022-08-19T00:28:39;14.65;;;9.95;;
19747;SDS011;10032;51.386;12.516;2022-08-19T00:31:05;14.98;;;10.32;;
19747;SDS011;10032;51.386;12.516;2022-08-19T00:33:32;19.88;;;11.30;;
19747;SDS011;10032;51.386;12.516;2022-08-19T00:35:58;12.85;;;10.13;;
19747;SDS011;10032;51.386;12.516;2022-08-19T00:38:24;14.63;;;10.27;;
19747;SDS011;10032;51.386;12.516;2022-08-19T00:40:50;14.68;;;10.45;;
19747;SDS011;10032;51.386;12.516;2022-08-19T00:43:18;16.38;;;12.13;;
19747;SDS011;10032;51.386;12.516;2022-08-19T00:45:46;14.45;;;9.98;;
19747;SDS011;10032;51.386;12.516;2022-08-19T00:48:12;14.82;;;10.57;;
19747;SDS011;10032;51.386;12.516;2022-08-19T00:50:39;13.15;;;10.93;;
19747;SDS011;10032;51.386;12.516;2022-08-19T00:53:08;13.60;;;10.00;;
19747;SDS011;10032;51.386;12.516;2022-08-19T00:55:35;14.65;;;10.20;;
19747;SDS011;10032;51.386;12.516;2022-08-19T00:58:04;16.15;;;11.02;;
19747;SDS011;10032;51.386;12.516;2022-08-19T01:00:33;14.05;;;10.38;;
19747;SDS011;10032;51.386;12.516;2022-08-19T01:03:09;15.70;;;11.63;;
19747;SDS011;10032;51.386;12.516;2022-08-19T01:05:36;17.98;;;11.88;;
19747;SDS011;10032;51.386;12.516;2022-08-19T01:08:04;16.08;;;12.13;;
19747;SDS011;10032;51.386;12.516;2022-08-19T01:10:48;15.98;;;11.38;;
19747;SDS011;10032;51.386;12.516;2022-08-19T01:13:21;17.15;;;10.75;;
19747;SDS011;10032;51.386;12.516;2022-08-19T01:15:50;17.05;;;11.70;;
19747;SDS011;10032;51.386;12.516;2022-08-19T01:18:19;18.38;;;12.38;;
19747;SDS011;10032;51.386;12.516;2022-08-19T01:20:46;15.82;;;11.50;;
19747;SDS011;10032;51.386;12.516;2022-08-19T01:23:12;17.45;;;12.40;;
19747;SDS011;10032;51.386;12.516;2022-08-19T01:25:56;18.20;;;11.00;;
19747;SDS011;10032;51.386;12.516;2022-08-19T01:28:26;15.65;;;11.40;;
19747;SDS011;10032;51.386;12.516;2022-08-19T01:30:52;16.23;;;11.45;;
19747;SDS011;10032;51.386;12.516;2022-08-19T01:33:19;20.48;;;11.02;;
19747;SDS011;10032;51.386;12.516;2022-08-19T01:35:45;15.77;;;11.70;;
19747;SDS011;10032;51.386;12.516;2022-08-19T01:38:19;17.08;;;11.50;;
19747;SDS011;10032;51.386;12.516;2022-08-19T01:40:49;14.55;;;11.10;;
19747;SDS011;10032;51.386;12.516;2022-08-19T01:43:14;18.25;;;12.35;;
19747;SDS011;10032;51.386;12.516;2022-08-19T01:45:40;17.65;;;12.93;;
19747;SDS011;10032;51.386;12.516;2022-08-19T01:48:06;18.45;;;11.48;;
19747;SDS011;10032;51.386;12.516;2022-08-19T01:50:33;15.90;;;11.10;;
19747;SDS011;10032;51.386;12.516;2022-08-19T01:53:00;17.90;;;12.35;;
19747;SDS011;10032;51.386;12.516;2022-08-19T01:55:26;16.35;;;11.15;;
19747;SDS011;10032;51.386;12.516;2022-08-19T01:57:54;16.13;;;11.77;;
19747;SDS011;10032;51.386;12.516;2022-08-19T02:00:23;15.10;;;11.70;;
19747;SDS011;10032;51.386;12.516;2022-08-19T02:02:50;18.08;;;11.52;;
19747;SDS011;10032;51.386;12.516;2022-08-19T02:05:15;14.82;;;10.65;;
19747;SDS011;10032;51.386;12.516;2022-08-19T02:07:42;15.32;;;10.82;;
19747;SDS011;10032;51.386;12.516;2022-08-19T02:10:10;16.35;;;11.75;;
19747;SDS011;10032;51.386;12.516;2022-08-19T02:12:38;14.93;;;11.27;;
19747;SDS011;10032;51.386;12.516;2022-08-19T02:15:04;17.75;;;12.25;;
19747;SDS011;10032;51.386;12.516;2022-08-19T02:17:31;13.98;;;10.18;;
19747;SDS011;10032;51.386;12.516;2022-08-19T02:19:56;13.55;;;9.98;;
19747;SDS011;10032;51.386;12.516;2022-08-19T02:22:22;12.80;;;9.80;;
19747;SDS011;10032;51.386;12.516;2022-08-19T02:24:49;13.77;;;9.63;;
19747;SDS011;10032;51.386;12.516;2022-08-19T02:27:14;16.02;;;9.95;;
19747;SDS011;10032;51.386;12.516;2022-08-19T02:29:40;12.73;;;10.13;;
19747;SDS011;10032;51.386;12.516;2022-08-19T02:32:06;12.98;;;9.82;;
19747;SDS011;10032;51.386;12.516;2022-08-19T02:34:31;13.23;;;10.27;;
19747;SDS011;10032;51.386;12.516;2022-08-19T02:36:57;12.98;;;9.90;;
19747;SDS011;10032;51.386;12.516;2022-08-19T02:39:22;11.57;;;9.27;;
19747;SDS011;10032;51.386;12.516;2022-08-19T02:41:48;11.73;;;9.40;;
19747;SDS011;10032;51.386;12.516;2022-08-19T02:44:14;13.23;;;10.15;;
19747;SDS011;10032;51.386;12.516;2022-08-19T02:46:39;13.10;;;9.50;;
19747;SDS011;10032;51.386;12.516;2022-08-19T02:49:06;13.38;;;9.30;;
19747;SDS011;10032;51.386;12.516;2022-08-19T02:51:33;12.70;;;9.55;;
19747;SDS011;10032;51.386;12.516;2022-08-19T02:53:59;12.27;;;8.82;;
19747;SDS011;10032;51.386;12.516;2022-08-19T02:56:25;12.85;;;9.07;;
19747;SDS011;10032;51.386;12.516;2022-08-19T02:58:52;12.57;;;8.52;;
19747;SDS011;10032;51.386;12.516;2022-08-19T03:01:22;10.65;;;7.95;;
19747;SDS011;10032;51.386;12.516;2022-08-19T03:03:53;11.18;;;8.35;;
19747;SDS011;10032;51.386;12.516;2022-08-19T03:06:19;10.60;;;8.43;;
19747;SDS011;10032;51.386;12.516;2022-08-19T03:08:45;9.57;;;7.88;;
19747;SDS011;10032;51.386;12.516;2022-08-19T03:11:12;9.90;;;8.48;;
19747;SDS011;10032;51.386;12.516;2022-08-19T03:13:42;12.93;;;8.40;;
19747;SDS011;10032;51.386;12.516;2022-08-19T03:16:08;10.20;;;8.38;;
19747;SDS011;10032;51.386;12.516;2022-08-19T03:18:34;10.05;;;8.30;;
19747;SDS011;10032;51.386;12.516;2022-08-19T03:21:00;11.98;;;9.50;;
19747;SDS011;10032;51.386;12.516;2022-08-19T03:23:25;10.07;;;8.10;;
19747;SDS011;10032;51.386;12.516;2022-08-19T03:25:51;11.40;;;8.50;;
19747;SDS011;10032;51.386;12.516;2022-08-19T03:28:18;9.20;;;7.75;;
19747;SDS011;10032;51.386;12.516;2022-08-19T03:30:54;10.93;;;8.95;;
19747;SDS011;10032;51.386;12.516;2022-08-19T03:33:21;10.70;;;8.57;;
19747;SDS011;10032;51.386;12.516;2022-08-19T03:35:47;10.13;;;8.45;;
19747;SDS011;10032;51.386;12.516;2022-08-19T03:38:24;9.73;;;8.07;;
19747;SDS011;10032;51.386;12.516;2022-08-19T03:40:50;9.27;;;7.65;;
19747;SDS011;10032;51.386;12.516;2022-08-19T03:43:15;9.68;;;8.30;;
19747;SDS011;10032;51.386;12.516;2022-08-19T03:45:43;9.82;;;7.68;;
19747;SDS011;10032;51.386;12.516;2022-08-19T03:48:09;10.60;;;8.10;;
19747;SDS011;10032;51.386;12.516;2022-08-19T03:50:38;8.15;;;6.35;;
19747;SDS011;10032;51.386;12.516;2022-08-19T03:53:04;9.10;;;7.35;;
19747;SDS011;10032;51.386;12.516;2022-08-19T03:55:29;9.35;;;7.25;;
19747;SDS011;10032;51.386;12.516;2022-08-19T03:57:55;10.70;;;7.68;;
19747;SDS011;10032;51.386;12.516;2022-08-19T04:00:21;10.07;;;7.93;;
19747;SDS011;10032;51.386;12.516;2022-08-19T04:02:46;9.70;;;7.85;;
19747;SDS011;10032;51.386;12.516;2022-08-19T04:05:12;12.82;;;8.50;;
19747;SDS011;10032;51.386;12.516;2022-08-19T04:07:38;10.93;;;8.02;;
19747;SDS011;10032;51.386;12.516;2022-08-19T04:10:04;9.23;;;7.38;;
19747;SDS011;10032;51.386;12.516;2022-08-19T04:12:30;8.77;;;7.30;;
19747;SDS011;10032;51.386;12.516;2022-08-19T04:14:56;9.80;;;7.57;;
19747;SDS011;10032;51.386;12.516;2022-08-19T04:17:22;8.23;;;7.03;;
19747;SDS011;10032;51.386;12.516;2022-08-19T04:19:47;13.32;;;9.23;;
19747;SDS011;10032;51.386;12.516;2022-08-19T04:22:12;9.32;;;7.40;;
19747;SDS011;10032;51.386;12.516;2022-08-19T04:24:38;9.90;;;8.30;;
19747;SDS011;10032;51.386;12.516;2022-08-19T04:27:04;10.50;;;8.20;;
19747;SDS011;10032;51.386;12.516;2022-08-19T04:29:30;11.40;;;8.60;;
19747;SDS011;10032;51.386;12.516;2022-08-19T04:31:57;11.60;;;8.65;;
19747;SDS011;10032;51.386;12.516;2022-08-19T04:34:24;12.15;;;8.45;;
19747;SDS011;10032;51.386;12.516;2022-08-19T04:36:54;11.02;;;8.65;;
19747;SDS011;10032;51.386;12.516;2022-08-19T04:39:23;10.80;;;8.93;;
19747;SDS011;10032;51.386;12.516;2022-08-19T04:42:12;12.15;;;9.65;;
19747;SDS011;10032;51.386;12.516;2022-08-19T04:44:57;11.68;;;8.45;;
19747;SDS011;10032;51.386;12.516;2022-08-19T04:47:23;12.40;;;9.57;;
19747;SDS011;10032;51.386;12.516;2022-08-19T04:49:49;12.43;;;9.15;;
19747;SDS011;10032;51.386;12.516;2022-08-19T04:52:15;12.63;;;10.02;;
19747;SDS011;10032;51.386;12.516;2022-08-19T04:54:40;12.30;;;9.27;;
19747;SDS011;10032;51.386;12.516;2022-08-19T04:57:08;15.20;;;11.10;;
19747;SDS011;10032;51.386;12.516;2022-08-19T04:59:35;13.75;;;10.35;;
19747;SDS011;10032;51.386;12.516;2022-08-19T05:02:01;15.43;;;10.75;;
19747;SDS011;10032;51.386;12.516;2022-08-19T05:04:27;13.50;;;10.93;;
19747;SDS011;10032;51.386;12.516;2022-08-19T05:06:55;13.57;;;10.38;;
19747;SDS011;10032;51.386;12.516;2022-08-19T05:09:21;13.73;;;10.90;;
19747;SDS011;10032;51.386;12.516;2022-08-19T05:11:46;14.00;;;10.63;;
19747;SDS011;10032;51.386;12.516;2022-08-19T05:14:13;14.43;;;11.32;;
19747;SDS011;10032;51.386;12.516;2022-08-19T05:16:38;14.35;;;10.52;;
19747;SDS011;10032;51.386;12.516;2022-08-19T05:19:04;15.30;;;11.60;;
19747;SDS011;10032;51.386;12.516;2022-08-19T05:21:49;15.30;;;11.65;;
19747;SDS011;10032;51.386;12.516;2022-08-19T05:24:33;14.30;;;11.07;;
19747;SDS011;10032;51.386;12.516;2022-08-19T05:26:59;16.02;;;12.10;;
19747;SDS011;10032;51.386;12.516;2022-08-19T05:29:27;17.92;;;13.10;;
19747;SDS011;10032;51.386;12.516;2022-08-19T05:31:57;20.25;;;13.80;;
19747;SDS011;10032;51.386;12.516;2022-08-19T05:34:24;19.50;;;13.70;;
19747;SDS011;10032;51.386;12.516;2022-08-19T05:36:51;20.75;;;13.52;;
19747;SDS011;10032;51.386;12.516;2022-08-19T05:39:21;22.23;;;14.95;;
19747;SDS011;10032;51.386;12.516;2022-08-19T05:41:48;24.15;;;14.55;;
19747;SDS011;10032;51.386;12.516;2022-08-19T05:44:17;24.48;;;15.57;;
19747;SDS011;10032;51.386;12.516;2022-08-19T05:46:45;21.33;;;14.40;;
19747;SDS011;10032;51.386;12.516;2022-08-19T05:49:14;21.73;;;16.08;;
19747;SDS011;10032;51.386;12.516;2022-08-19T05:51:40;21.65;;;14.73;;
19747;SDS011;10032;51.386;12.516;2022-08-19T05:54:08;23.35;;;15.88;;
19747;SDS011;10032;51.386;12.516;2022-08-19T05:56:36;22.05;;;15.35;;
19747;SDS011;10032;51.386;12.516;2022-08-19T05:59:03;24.40;;;16.30;;
19747;SDS011;10032;51.386;12.516;2022-08-19T06:01:33;24.35;;;15.80;;
19747;SDS011;10032;51.386;12.516;2022-08-19T06:03:59;21.80;;;15.30;;
19747;SDS011;10032;51.386;12.516;2022-08-19T06:06:24;22.65;;;16.42;;
19747;SDS011;10032;51.386;12.516;2022-08-19T06:08:50;22.85;;;15.98;;
19747;SDS011;10032;51.386;12.516;2022-08-19T06:11:20;25.90;;;17.15;;
19747;SDS011;10032;51.386;12.516;2022-08-19T06:13:48;22.02;;;14.63;;
19747;SDS011;10032;51.386;12.516;2022-08-19T06:16:18;26.27;;;15.18;;
19747;SDS011;10032;51.386;12.516;2022-08-19T06:18:50;27.80;;;17.33;;
19747;SDS011;10032;51.386;12.516;2022-08-19T06:21:20;21.88;;;15.75;;
19747;SDS011;10032;51.386;12.516;2022-08-19T06:23:48;22.83;;;15.90;;
19747;SDS011;10032;51.386;12.516;2022-08-19T06:26:14;26.25;;;16.95;;
19747;SDS011;10032;51.386;12.516;2022-08-19T06:28:41;26.92;;;17.77;;
19747;SDS011;10032;51.386;12.516;2022-08-19T06:31:10;23.05;;;16.58;;
19747;SDS011;10032;51.386;12.516;2022-08-19T06:33:36;23.63;;;16.67;;
19747;SDS011;10032;51.386;12.516;2022-08-19T06:36:02;26.45;;;16.80;;
19747;SDS011;10032;51.386;12.516;2022-08-19T06:38:28;26.20;;;16.67;;
19747;SDS011;10032;51.386;12.516;2022-08-19T06:41:03;24.88;;;16.23;;
19747;SDS011;10032;51.386;12.516;2022-08-19T06:43:29;28.88;;;17.17;;
19747;SDS011;10032;51.386;12.516;2022-08-19T06:45:54;23.88;;;16.30;;
19747;SDS011;10032;51.386;12.516;2022-08-19T06:48:20;24.42;;;15.73;;
19747;SDS011;10032;51.386;12.516;2022-08-19T06:50:45;25.17;;;15.88;;
19747;SDS011;10032;51.386;12.516;2022-08-19T06:53:12;26.20;;;17.55;;
19747;SDS011;10032;51.386;12.516;2022-08-19T06:55:37;25.48;;;16.52;;
19747;SDS011;10032;51.386;12.516;2022-08-19T06:58:04;29.67;;;17.35;;
19747;SDS011;10032;51.386;12.516;2022-08-19T07:00:29;28.02;;;17.25;;
19747;SDS011;10032;51.386;12.516;2022-08-19T07:02:55;25.08;;;16.17;;
19747;SDS011;10032;51.386;12.516;2022-08-19T07:05:20;25.92;;;17.50;;
19747;SDS011;10032;51.386;12.516;2022-08-19T07:07:46;29.38;;;18.27;;
19747;SDS011;10032;51.386;12.516;2022-08-19T07:10:11;26.88;;;16.90;;
19747;SDS011;10032;51.386;12.516;2022-08-19T07:12:36;27.65;;;18.55;;
19747;SDS011;10032;51.386;12.516;2022-08-19T07:15:05;28.23;;;18.52;;
19747;SDS011;10032;51.386;12.516;2022-08-19T07:17:33;26.10;;;17.40;;
19747;SDS011;10032;51.386;12.516;2022-08-19T07:20:03;30.45;;;18.33;;
19747;SDS011;10032;51.386;12.516;2022-08-19T07:22:32;29.77;;;18.35;;
19747;SDS011;10032;51.386;12.516;2022-08-19T07:24:58;31.25;;;18.23;;
19747;SDS011;10032;51.386;12.516;2022-08-19T07:27:24;28.00;;;18.45;;
19747;SDS011;10032;51.386;12.516;2022-08-19T07:29:50;27.05;;;17.42;;
19747;SDS011;10032;51.386;12.516;2022-08-19T07:32:16;27.73;;;17.25;;
19747;SDS011;10032;51.386;12.516;2022-08-19T07:34:41;26.98;;;17.80;;
19747;SDS011;10032;51.386;12.516;2022-08-19T07:37:07;27.50;;;17.25;;
19747;SDS011;10032;51.386;12.516;2022-08-19T07:39:33;25.35;;;16.80;;
19747;SDS011;10032;51.386;12.516;2022-08-19T07:42:02;27.60;;;17.98;;
19747;SDS011;10032;51.386;12.516;2022-08-19T07:44:31;27.77;;;16.38;;
19747;SDS011;10032;51.386;12.516;2022-08-19T07:46:58;28.73;;;18.25;;
19747;SDS011;10032;51.386;12.516;2022-08-19T07:49:25;31.00;;;18.48;;
19747;SDS011;10032;51.386;12.516;2022-08-19T07:51:52;32.38;;;19.63;;
19747;SDS011;10032;51.386;12.516;2022-08-19T07:54:22;32.53;;;19.85;;
19747;SDS011;10032;51.386;12.516;2022-08-19T07:56:49;33.00;;;19.05;;
19747;SDS011;10032;51.386;12.516;2022-08-19T07:59:15;30.13;;;18.45;;
19747;SDS011;10032;51.386;12.516;2022-08-19T08:01:42;30.58;;;18.38;;
19747;SDS011;10032;51.386;12.516;2022-08-19T08:04:08;27.38;;;17.73;;
19747;SDS011;10032;51.386;12.516;2022-08-19T08:06:52;30.80;;;18.40;;
19747;SDS011;10032;51.386;12.516;2022-08-19T08:09:38;29.77;;;17.98;;
19747;SDS011;10032;51.386;12.516;2022-08-19T08:14:37;28.83;;;18.27;;
19747;SDS011;10032;51.386;12.516;2022-08-19T08:17:06;26.98;;;17.48;;
19747;SDS011;10032;51.386;12.516;2022-08-19T08:19:33;28.98;;;16.58;;
19747;SDS011;10032;51.386;12.516;2022-08-19T08:21:59;30.73;;;17.90;;
19747;SDS011;10032;51.386;12.516;2022-08-19T08:24:29;29.02;;;17.67;;
19747;SDS011;10032;51.386;12.516;2022-08-19T08:26:56;30.25;;;18.58;;
19747;SDS011;10032;51.386;12.516;2022-08-19T08:29:24;24.73;;;16.63;;
19747;SDS011;10032;51.386;12.516;2022-08-19T08:31:50;25.65;;;17.00;;
19747;SDS011;10032;51.386;12.516;2022-08-19T08:34:16;26.00;;;17.25;;
19747;SDS011;10032;51.386;12.516;2022-08-19T08:36:44;28.05;;;16.23;;
19747;SDS011;10032;51.386;12.516;2022-08-19T08:39:17;27.23;;;16.48;;
19747;SDS011;10032;51.386;12.516;2022-08-19T08:42:05;27.00;;;17.17;;
19747;SDS011;10032;51.386;12.516;2022-08-19T08:44:46;30.48;;;17.08;;
19747;SDS011;10032;51.386;12.516;2022-08-19T08:47:19;23.85;;;16.05;;
19747;SDS011;10032;51.386;12.516;2022-08-19T08:49:51;24.90;;;16.80;;
19747;SDS011;10032;51.386;12.516;2022-08-19T08:52:25;21.73;;;16.38;;
19747;SDS011;10032;51.386;12.516;2022-08-19T08:55:16;24.17;;;16.38;;
19747;SDS011;10032;51.386;12.516;2022-08-19T09:00:23;24.60;;;16.67;;
19747;SDS011;10032;51.386;12.516;2022-08-19T09:02:50;22.20;;;15.73;;
19747;SDS011;10032;51.386;12.516;2022-08-19T09:05:16;25.83;;;16.63;;
19747;SDS011;10032;51.386;12.516;2022-08-19T09:07:54;26.75;;;17.17;;
19747;SDS011;10032;51.386;12.516;2022-08-19T09:10:29;24.70;;;16.60;;
19747;SDS011;10032;51.386;12.516;2022-08-19T09:15:39;24.77;;;17.25;;
19747;SDS011;10032;51.386;12.516;2022-08-19T09:18:09;27.00;;;16.27;;
19747;SDS011;10032;51.386;12.516;2022-08-19T09:20:35;28.60;;;18.65;;
19747;SDS011;10032;51.386;12.516;2022-08-19T09:23:01;24.58;;;17.08;;
19747;SDS011;10032;51.386;12.516;2022-08-19T09:25:26;25.75;;;16.60;;
19747;SDS011;10032;51.386;12.516;2022-08-19T09:27:52;25.52;;;17.38;;
19747;SDS011;10032;51.386;12.516;2022-08-19T09:30:26;27.10;;;17.75;;
19747;SDS011;10032;51.386;12.516;2022-08-19T09:32:53;26.45;;;17.23;;
19747;SDS011;10032;51.386;12.516;2022-08-19T09:35:23;25.17;;;16.92;;
19747;SDS011;10032;51.386;12.516;2022-08-19T09:37:53;24.45;;;16.15;;
19747;SDS011;10032;51.386;12.516;2022-08-19T09:40:18;22.60;;;15.05;;
19747;SDS011;10032;51.386;12.516;2022-08-19T09:42:44;23.60;;;14.63;;
19747;SDS011;10032;51.386;12.516;2022-08-19T09:45:14;21.05;;;15.00;;
19747;SDS011;10032;51.386;12.516;2022-08-19T09:47:41;22.63;;;14.32;;
19747;SDS011;10032;51.386;12.516;2022-08-19T09:50:08;20.23;;;13.82;;
19747;SDS011;10032;51.386;12.516;2022-08-19T09:52:36;25.40;;;14.93;;
19747;SDS011;10032;51.386;12.516;2022-08-19T09:55:05;27.40;;;15.65;;
19747;SDS011;10032;51.386;12.516;2022-08-19T09:57:32;25.77;;;16.20;;
19747;SDS011;10032;51.386;12.516;2022-08-19T09:59:58;23.08;;;16.48;;
19747;SDS011;10032;51.386;12.516;2022-08-19T10:02:24;24.20;;;15.95;;
19747;SDS011;10032;51.386;12.516;2022-08-19T10:04:49;26.83;;;16.02;;
19747;SDS011;10032;51.386;12.516;2022-08-19T10:07:33;24.00;;;16.30;;
19747;SDS011;10032;51.386;12.516;2022-08-19T10:10:00;22.33;;;15.52;;
19747;SDS011;10032;51.386;12.516;2022-08-19T10:12:26;26.13;;;16.67;;
19747;SDS011;10032;51.386;12.516;2022-08-19T10:14:51;24.70;;;15.65;;
19747;SDS011;10032;51.386;12.516;2022-08-19T10:17:18;26.83;;;16.65;;
19747;SDS011;10032;51.386;12.516;2022-08-19T10:19:43;22.60;;;15.40;;
19747;SDS011;10032;51.386;12.516;2022-08-19T10:22:09;24.30;;;15.52;;
19747;SDS011;10032;51.386;12.516;2022-08-19T10:24:39;22.02;;;15.13;;
19747;SDS011;10032;51.386;12.516;2022-08-19T10:27:04;28.00;;;16.05;;
19747;SDS011;10032;51.386;12.516;2022-08-19T10:29:30;19.83;;;13.95;;
19747;SDS011;10032;51.386;12.516;2022-08-19T10:31:59;24.92;;;13.88;;
19747;SDS011;10032;51.386;12.516;2022-08-19T10:34:33;20.67;;;14.57;;
19747;SDS011;10032;51.386;12.516;2022-08-19T10:37:01;20.73;;;14.80;;
19747;SDS011;10032;51.386;12.516;2022-08-19T10:39:30;22.30;;;14.38;;
19747;SDS011;10032;51.386;12.516;2022-08-19T10:41:58;28.65;;;14.85;;
19747;SDS011;10032;51.386;12.516;2022-08-19T10:44:24;27.92;;;14.98;;
19747;SDS011;10032;51.386;12.516;2022-08-19T10:46:49;19.10;;;13.75;;
19747;SDS011;10032;51.386;12.516;2022-08-19T10:49:16;21.05;;;14.73;;
19747;SDS011;10032;51.386;12.516;2022-08-19T10:51:42;21.00;;;13.63;;
19747;SDS011;10032;51.386;12.516;2022-08-19T10:54:26;20.38;;;14.50;;
19747;SDS011;10032;51.386;12.516;2022-08-19T10:57:12;25.60;;;14.63;;
19747;SDS011;10032;51.386;12.516;2022-08-19T10:59:39;23.85;;;14.32;;
19747;SDS011;10032;51.386;12.516;2022-08-19T11:02:05;20.02;;;14.32;;
19747;SDS011;10032;51.386;12.516;2022-08-19T11:04:34;18.45;;;12.80;;
19747;SDS011;10032;51.386;12.516;2022-08-19T11:07:00;18.10;;;13.32;;
19747;SDS011;10032;51.386;12.516;2022-08-19T11:09:26;19.92;;;13.32;;
19747;SDS011;10032;51.386;12.516;2022-08-19T11:11:52;19.90;;;13.05;;
19747;SDS011;10032;51.386;12.516;2022-08-19T11:14:19;19.67;;;12.77;;
19747;SDS011;10032;51.386;12.516;2022-08-19T11:16:46;18.73;;;12.38;;
19747;SDS011;10032;51.386;12.516;2022-08-19T11:19:13;16.80;;;12.23;;
19747;SDS011;10032;51.386;12.516;2022-08-19T11:21:42;16.95;;;11.82;;
19747;SDS011;10032;51.386;12.516;2022-08-19T11:24:11;16.38;;;13.15;;
19747;SDS011;10032;51.386;12.516;2022-08-19T11:26:41;15.00;;;10.85;;
19747;SDS011;10032;51.386;12.516;2022-08-19T11:29:08;15.32;;;11.77;;
19747;SDS011;10032;51.386;12.516;2022-08-19T11:31:39;13.45;;;10.82;;
19747;SDS011;10032;51.386;12.516;2022-08-19T11:34:09;16.02;;;11.13;;
19747;SDS011;10032;51.386;12.516;2022-08-19T11:36:38;14.70;;;10.35;;
19747;SDS011;10032;51.386;12.516;2022-08-19T11:39:07;15.20;;;10.45;;
19747;SDS011;10032;51.386;12.516;2022-08-19T11:41:32;12.52;;;10.70;;
19747;SDS011;10032;51.386;12.516;2022-08-19T11:43:58;15.43;;;10.85;;
19747;SDS011;10032;51.386;12.516;2022-08-19T11:46:24;13.77;;;9.13;;
19747;SDS011;10032;51.386;12.516;2022-08-19T11:48:51;14.13;;;9.93;;
19747;SDS011;10032;51.386;12.516;2022-08-19T11:51:18;12.73;;;9.50;;
19747;SDS011;10032;51.386;12.516;2022-08-19T11:53:46;13.57;;;10.02;;
19747;SDS011;10032;51.386;12.516;2022-08-19T11:56:12;13.65;;;10.15;;
19747;SDS011;10032;51.386;12.516;2022-08-19T11:58:38;13.23;;;9.43;;
19747;SDS011;10032;51.386;12.516;2022-08-19T12:01:08;11.80;;;9.65;;
19747;SDS011;10032;51.386;12.516;2022-08-19T12:03:36;14.98;;;8.98;;
19747;SDS011;10032;51.386;12.516;2022-08-19T12:06:03;13.70;;;9.50;;
19747;SDS011;10032;51.386;12.516;2022-08-19T12:08:30;15.27;;;10.07;;
19747;SDS011;10032;51.386;12.516;2022-08-19T12:10:56;13.18;;;9.77;;
19747;SDS011;10032;51.386;12.516;2022-08-19T12:13:21;14.57;;;10.98;;
19747;SDS011;10032;51.386;12.516;2022-08-19T12:15:47;10.88;;;9.10;;
19747;SDS011;10032;51.386;12.516;2022-08-19T12:18:12;13.48;;;9.55;;
19747;SDS011;10032;51.386;12.516;2022-08-19T12:20:41;13.73;;;9.80;;
19747;SDS011;10032;51.386;12.516;2022-08-19T12:23:08;11.82;;;9.00;;
19747;SDS011;10032;51.386;12.516;2022-08-19T12:25:34;12.05;;;9.05;;
19747;SDS011;10032;51.386;12.516;2022-08-19T12:28:01;13.20;;;9.40;;
19747;SDS011;10032;51.386;12.516;2022-08-19T12:30:27;12.30;;;9.07;;
19747;SDS011;10032;51.386;12.516;2022-08-19T12:32:53;11.85;;;9.35;;
19747;SDS011;10032;51.386;12.516;2022-08-19T12:35:18;11.48;;;9.38;;
19747;SDS011;10032;51.386;12.516;2022-08-19T12:37:47;12.88;;;9.82;;
19747;SDS011;10032;51.386;12.516;2022-08-19T12:40:14;11.05;;;9.50;;
19747;SDS011;10032;51.386;12.516;2022-08-19T12:42:41;11.95;;;9.52;;
19747;SDS011;10032;51.386;12.516;2022-08-19T12:45:08;11.82;;;9.10;;
19747;SDS011;10032;51.386;12.516;2022-08-19T12:47:37;14.38;;;9.40;;
19747;SDS011;10032;51.386;12.516;2022-08-19T12:50:03;14.27;;;10.57;;
19747;SDS011;10032;51.386;12.516;2022-08-19T12:52:34;12.48;;;9.85;;
19747;SDS011;10032;51.386;12.516;2022-08-19T12:55:03;11.80;;;9.52;;
19747;SDS011;10032;51.386;12.516;2022-08-19T12:57:31;17.58;;;10.43;;
19747;SDS011;10032;51.386;12.516;2022-08-19T13:00:00;13.63;;;9.05;;
19747;SDS011;10032;51.386;12.516;2022-08-19T13:02:30;13.95;;;10.07;;
19747;SDS011;10032;51.386;12.516;2022-08-19T13:04:57;13.70;;;10.32;;
19747;SDS011;10032;51.386;12.516;2022-08-19T13:07:23;12.80;;;9.80;;
19747;SDS011;10032;51.386;12.516;2022-08-19T13:09:50;15.32;;;10.85;;
19747;SDS011;10032;51.386;12.516;2022-08-19T13:12:16;13.25;;;9.88;;
19747;SDS011;10032;51.386;12.516;2022-08-19T13:14:42;15.52;;;10.73;;
19747;SDS011;10032;51.386;12.516;2022-08-19T13:17:07;14.27;;;9.80;;
19747;SDS011;10032;51.386;12.516;2022-08-19T13:19:35;14.13;;;10.45;;
19747;SDS011;10032;51.386;12.516;2022-08-19T13:22:01;15.73;;;11.15;;
19747;SDS011;10032;51.386;12.516;2022-08-19T13:24:26;15.05;;;10.98;;
19747;SDS011;10032;51.386;12.516;2022-08-19T13:26:52;14.65;;;10.80;;
19747;SDS011;10032;51.386;12.516;2022-08-19T13:29:17;15.40;;;11.45;;
19747;SDS011;10032;51.386;12.516;2022-08-19T13:32:01;14.05;;;10.38;;
19747;SDS011;10032;51.386;12.516;2022-08-19T13:34:46;14.93;;;11.10;;
19747;SDS011;10032;51.386;12.516;2022-08-19T13:37:14;14.57;;;10.70;;
19747;SDS011;10032;51.386;12.516;2022-08-19T13:39:39;13.85;;;10.18;;
19747;SDS011;10032;51.386;12.516;2022-08-19T13:42:05;14.63;;;10.75;;
19747;SDS011;10032;51.386;12.516;2022-08-19T13:44:31;13.80;;;10.82;;
19747;SDS011;10032;51.386;12.516;2022-08-19T13:47:03;13.07;;;10.07;;
19747;SDS011;10032;51.386;12.516;2022-08-19T13:49:34;14.98;;;11.05;;
19747;SDS011;10032;51.386;12.516;2022-08-19T13:52:02;14.40;;;10.10;;
19747;SDS011;10032;51.386;12.516;2022-08-19T13:54:28;15.70;;;11.52;;
19747;SDS011;10032;51.386;12.516;2022-08-19T13:56:53;17.00;;;12.40;;
19747;SDS011;10032;51.386;12.516;2022-08-19T13:59:19;15.23;;;11.35;;
19747;SDS011;10032;51.386;12.516;2022-08-19T14:01:44;15.25;;;11.20;;
19747;SDS011;10032;51.386;12.516;2022-08-19T14:04:10;14.85;;;11.10;;
19747;SDS011;10032;51.386;12.516;2022-08-19T14:06:35;16.25;;;11.90;;
19747;SDS011;10032;51.386;12.516;2022-08-19T14:09:01;14.68;;;11.07;;
19747;SDS011;10032;51.386;12.516;2022-08-19T14:11:27;13.35;;;10.85;;
19747;SDS011;10032;51.386;12.516;2022-08-19T14:13:53;15.13;;;11.52;;
19747;SDS011;10032;51.386;12.516;2022-08-19T14:16:19;16.42;;;11.65;;
19747;SDS011;10032;51.386;12.516;2022-08-19T14:18:44;14.88;;;11.68;;
19747;SDS011;10032;51.386;12.516;2022-08-19T14:21:17;15.02;;;11.40;;
19747;SDS011;10032;51.386;12.516;2022-08-19T14:23:47;14.70;;;10.88;;
19747;SDS011;10032;51.386;12.516;2022-08-19T14:26:14;15.60;;;11.57;;